Terminal Aerodrome Forecast
Issued by NWS

Home | Current Version | Previous Version | Graphics & Text | Print | Product List | Glossary On
Versions: 1 2 3 4 5 6 7 8 9 10 11 12 13 14
000
FTUS43 KBIS 190526
TAFMOT
TAF
KMOT 190526Z 1906/2006 20009KT P6SM SKC
     FM191800 23012KT P6SM FEW100 FEW250
     FM192000 27016KT P6SM FEW120 FEW250
     FM192300 30018KT P6SM FEW110 FEW250
     FM200500 32009KT P6SM FEW120 FEW250=

USA.gov is the U.S. government's official web portal to all federal, state and local government web resources and services.